createdAt,value
2023-04-12T00:00:28.776Z,37.60
2023-04-12T00:01:28.827Z,37.62
2023-04-12T00:02:30.011Z,37.62
2023-04-12T00:03:29.022Z,37.60
2023-04-12T00:04:29.503Z,37.55
2023-04-12T00:05:29.059Z,37.58
2023-04-12T00:06:29.144Z,37.52
2023-04-12T00:07:29.155Z,37.52
2023-04-12T00:08:29.249Z,37.51
2023-04-12T00:09:29.324Z,37.51
2023-04-12T00:10:29.345Z,37.39
2023-04-12T00:11:29.402Z,37.41
2023-04-12T00:12:29.490Z,37.39
2023-04-12T00:13:29.561Z,37.37
2023-04-12T00:14:29.547Z,37.40
2023-04-12T00:15:29.611Z,37.40
2023-04-12T00:16:29.729Z,37.30
2023-04-12T00:17:29.752Z,37.29
2023-04-12T00:18:29.799Z,37.30
2023-04-12T00:19:29.900Z,37.33
2023-04-12T00:20:29.916Z,37.26
2023-04-12T00:21:29.969Z,37.22
2023-04-12T00:22:30.052Z,37.24
2023-04-12T00:23:30.085Z,37.25
2023-04-12T00:24:30.200Z,37.22
2023-04-12T00:25:30.240Z,37.18
2023-04-12T00:26:30.335Z,37.15
2023-04-12T00:27:30.351Z,37.09
2023-04-12T00:28:30.410Z,37.12
2023-04-12T00:29:30.475Z,37.15
2023-04-12T00:30:30.542Z,37.12
2023-04-12T00:31:30.649Z,37.05
2023-04-12T00:32:30.647Z,37.03
2023-04-12T00:33:30.712Z,37.03
2023-04-12T00:34:30.850Z,37.00
2023-04-12T00:35:30.937Z,37.00
2023-04-12T00:36:30.945Z,36.97
2023-04-12T00:37:30.943Z,37.04
2023-04-12T00:38:31.023Z,36.94
2023-04-12T00:39:31.108Z,36.97
2023-04-12T00:40:31.178Z,36.95
2023-04-12T00:41:31.217Z,36.92
2023-04-12T00:42:31.261Z,36.87
2023-04-12T00:43:31.340Z,36.83
2023-04-12T00:44:31.396Z,36.79
2023-04-12T00:45:31.456Z,36.85
2023-04-12T00:46:31.571Z,36.85
2023-04-12T00:47:31.591Z,36.76
2023-04-12T00:48:31.594Z,36.82
2023-04-12T00:49:31.694Z,36.80
2023-04-12T00:50:31.723Z,36.74
2023-04-12T00:51:31.800Z,36.76
2023-04-12T00:52:31.823Z,36.73
2023-04-12T00:53:31.914Z,36.68
2023-04-12T00:54:32.016Z,36.68
2023-04-12T00:55:32.085Z,36.69
2023-04-12T00:56:32.097Z,36.66
2023-04-12T00:57:32.134Z,36.69
2023-04-12T00:58:32.223Z,36.61
2023-04-12T00:59:32.304Z,36.56
2023-04-12T01:00:32.355Z,36.58
2023-04-12T01:01:32.403Z,36.62
2023-04-12T01:02:32.594Z,36.54
2023-04-12T01:03:32.778Z,36.56
2023-04-12T01:04:32.568Z,36.52
2023-04-12T01:05:32.655Z,36.48
2023-04-12T01:06:32.721Z,36.51
2023-04-12T01:07:32.793Z,36.51
2023-04-12T01:08:32.866Z,36.50
2023-04-12T01:09:32.908Z,36.46
2023-04-12T01:10:32.920Z,36.45
2023-04-12T01:11:33.364Z,36.44
2023-04-12T01:12:33.082Z,36.41
2023-04-12T01:13:33.118Z,36.37
2023-04-12T01:14:33.169Z,36.34
2023-04-12T01:15:33.218Z,36.33
2023-04-12T01:16:33.331Z,36.33
2023-04-12T01:17:33.372Z,36.29
2023-04-12T01:18:33.376Z,36.26
2023-04-12T01:19:33.411Z,36.29
2023-04-12T01:20:33.482Z,36.26
2023-04-12T01:21:33.542Z,36.26
2023-04-12T01:22:33.601Z,36.25
2023-04-12T01:23:33.661Z,36.19
2023-04-12T01:24:33.713Z,36.23
2023-04-12T01:25:33.789Z,36.19
2023-04-12T01:26:33.911Z,36.19
2023-04-12T01:27:33.870Z,36.12
2023-04-12T01:28:33.983Z,36.11
2023-04-12T01:29:34.005Z,36.09
2023-04-12T01:30:34.083Z,36.09
2023-04-12T01:31:34.148Z,36.11
2023-04-12T01:32:34.294Z,36.05
2023-04-12T01:33:34.244Z,36.06
2023-04-12T01:34:34.308Z,36.04
2023-04-12T01:35:35.498Z,36.00
2023-04-12T01:36:34.443Z,36.01
2023-04-12T01:37:34.507Z,35.98
2023-04-12T01:38:34.549Z,36.00
2023-04-12T01:39:34.598Z,35.94
2023-04-12T01:40:34.698Z,35.97
2023-04-12T01:41:34.781Z,35.94
2023-04-12T01:42:34.799Z,35.93
2023-04-12T01:43:34.876Z,35.91
2023-04-12T01:44:34.940Z,35.86
2023-04-12T01:45:35.034Z,35.87
2023-04-12T01:46:35.059Z,35.88
2023-04-12T01:47:35.130Z,35.83
2023-04-12T01:48:35.186Z,35.80
2023-04-12T01:49:35.260Z,35.85
2023-04-12T01:50:35.292Z,35.80
2023-04-12T01:51:35.360Z,35.76
2023-04-12T01:52:35.451Z,35.73
2023-04-12T01:53:35.467Z,35.71
2023-04-12T01:54:35.535Z,35.73
2023-04-12T01:55:35.577Z,35.72
2023-04-12T01:56:35.674Z,35.69
2023-04-12T01:57:35.729Z,35.68
2023-04-12T01:58:35.762Z,35.71
2023-04-12T01:59:35.807Z,35.65
2023-04-12T02:00:35.918Z,35.65
2023-04-12T02:01:35.944Z,35.66
2023-04-12T02:02:36.958Z,35.67
2023-04-12T02:03:36.102Z,35.61
2023-04-12T02:04:36.087Z,35.62
2023-04-12T02:05:36.200Z,35.61
2023-04-12T02:06:36.218Z,35.59
2023-04-12T02:07:36.404Z,35.54
2023-04-12T02:08:36.357Z,35.55
2023-04-12T02:09:36.420Z,35.55
2023-04-12T02:10:36.487Z,35.52
2023-04-12T02:11:36.531Z,35.50
2023-04-12T02:12:36.622Z,35.46
2023-04-12T02:13:36.651Z,35.46
2023-04-12T02:14:36.726Z,35.48
2023-04-12T02:15:36.767Z,35.47
2023-04-12T02:16:36.909Z,35.44
2023-04-12T02:17:36.896Z,35.41
2023-04-12T02:18:36.963Z,35.41
2023-04-12T02:19:37.031Z,35.36
2023-04-12T02:20:37.087Z,35.39
2023-04-12T02:21:37.128Z,35.37
2023-04-12T02:22:37.185Z,35.38
2023-04-12T02:23:37.272Z,35.33
2023-04-12T02:24:37.298Z,35.33
2023-04-12T02:25:37.378Z,35.26
2023-04-12T02:26:37.429Z,35.32
2023-04-12T02:27:37.543Z,35.27
2023-04-12T02:28:37.591Z,35.29
2023-04-12T02:29:37.614Z,35.25
2023-04-12T02:30:37.793Z,35.25
2023-04-12T02:31:37.727Z,35.26
2023-04-12T02:32:37.848Z,35.24
2023-04-12T02:33:37.843Z,35.24
2023-04-12T02:34:37.917Z,35.24
2023-04-12T02:35:38.029Z,35.20
2023-04-12T02:36:38.227Z,35.13
2023-04-12T02:37:38.121Z,35.12
2023-04-12T02:38:38.187Z,35.15
2023-04-12T02:39:38.228Z,35.14
2023-04-12T02:40:38.289Z,35.11
2023-04-12T02:41:38.349Z,35.11
2023-04-12T02:42:40.002Z,35.12
2023-04-12T02:43:38.477Z,35.12
2023-04-12T02:44:38.556Z,35.08
2023-04-12T02:45:38.604Z,35.06
2023-04-12T02:46:38.686Z,35.04
2023-04-12T02:47:38.740Z,35.04
2023-04-12T02:48:38.759Z,35.00
2023-04-12T02:49:38.816Z,34.97
2023-04-12T02:50:38.865Z,35.02
2023-04-12T02:51:38.924Z,34.97
2023-04-12T02:52:38.950Z,34.95
2023-04-12T02:53:39.040Z,34.95
2023-04-12T02:54:39.095Z,34.97
2023-04-12T02:55:39.112Z,34.95
2023-04-12T02:56:39.217Z,34.90
2023-04-12T02:57:39.257Z,34.93
2023-04-12T02:58:39.310Z,34.87
2023-04-12T02:59:39.381Z,34.87
2023-04-12T03:00:39.463Z,34.90
2023-04-12T03:01:39.671Z,34.86
2023-04-12T03:02:39.749Z,34.83
2023-04-12T03:03:39.735Z,34.87
2023-04-12T03:04:39.666Z,34.82
2023-04-12T03:05:39.721Z,34.79
2023-04-12T03:06:39.775Z,34.76
2023-04-12T03:07:39.797Z,34.80
2023-04-12T03:08:39.859Z,34.77
2023-04-12T03:09:39.896Z,34.74
2023-04-12T03:10:39.971Z,34.73
2023-04-12T03:11:40.012Z,34.72
2023-04-12T03:12:40.128Z,34.76
2023-04-12T03:13:40.118Z,34.73
2023-04-12T03:14:40.157Z,34.72
2023-04-12T03:15:40.216Z,34.73
2023-04-12T03:16:40.252Z,34.69
2023-04-12T03:17:40.361Z,34.69
2023-04-12T03:18:40.330Z,34.69
2023-04-12T03:19:40.376Z,34.65
2023-04-12T03:20:40.395Z,34.70
2023-04-12T03:21:40.478Z,34.63
2023-04-12T03:22:40.421Z,34.64
2023-04-12T03:23:40.521Z,34.59
2023-04-12T03:24:40.546Z,34.65
2023-04-12T03:25:40.598Z,34.58
2023-04-12T03:26:40.626Z,34.59
2023-04-12T03:27:40.636Z,34.59
2023-04-12T03:28:40.704Z,34.57
2023-04-12T03:29:40.752Z,34.54
2023-04-12T03:30:40.756Z,34.57
2023-04-12T03:31:40.869Z,34.55
2023-04-12T03:32:40.905Z,34.52
2023-04-12T03:33:40.906Z,34.54
2023-04-12T03:34:40.961Z,34.52
2023-04-12T03:35:40.983Z,34.50
2023-04-12T03:36:40.991Z,34.52
2023-04-12T03:37:41.039Z,34.45
2023-04-12T03:38:41.081Z,34.51
2023-04-12T03:39:41.115Z,34.41
2023-04-12T03:40:41.191Z,34.44
2023-04-12T03:41:41.189Z,34.43
2023-04-12T03:42:41.244Z,34.40
2023-04-12T03:43:41.259Z,34.37
2023-04-12T03:44:41.362Z,34.41
2023-04-12T03:45:41.312Z,34.33
2023-04-12T03:46:41.391Z,34.37
2023-04-12T03:47:41.389Z,34.36
2023-04-12T03:48:41.415Z,34.38
2023-04-12T03:49:41.468Z,34.34
2023-04-12T03:50:41.466Z,34.29
2023-04-12T03:51:41.505Z,34.32
2023-04-12T03:52:41.517Z,34.32
2023-04-12T03:53:41.517Z,34.30
2023-04-12T03:54:41.632Z,34.30
2023-04-12T03:55:41.606Z,34.30
2023-04-12T03:56:42.426Z,34.26
2023-04-12T03:57:41.654Z,34.25
2023-04-12T03:58:41.726Z,34.25
2023-04-12T03:59:41.722Z,34.23
2023-04-12T04:00:41.732Z,34.19
2023-04-12T04:01:41.885Z,34.20
2023-04-12T04:02:41.904Z,34.19
2023-04-12T04:03:41.887Z,34.18
2023-04-12T04:04:41.827Z,34.15
2023-04-12T04:05:41.827Z,34.14
2023-04-12T04:06:41.877Z,34.16
2023-04-12T04:07:41.890Z,34.16
2023-04-12T04:08:41.899Z,34.12
2023-04-12T04:09:41.960Z,34.12
2023-04-12T04:10:41.937Z,34.12
2023-04-12T04:11:42.053Z,34.10
2023-04-12T04:12:41.975Z,34.12
2023-04-12T04:13:42.021Z,34.06
2023-04-12T04:14:42.068Z,34.08
2023-04-12T04:15:42.090Z,34.11
2023-04-12T04:16:42.218Z,34.09
2023-04-12T04:17:42.169Z,34.06
2023-04-12T04:18:42.128Z,34.08
2023-04-12T04:19:42.160Z,34.06
2023-04-12T04:20:42.179Z,34.06
2023-04-12T04:21:42.242Z,34.01
2023-04-12T04:22:42.284Z,34.01
2023-04-12T04:23:42.308Z,33.99
2023-04-12T04:24:42.305Z,33.98
2023-04-12T04:25:42.316Z,33.98
2023-04-12T04:26:42.370Z,33.97
2023-04-12T04:27:42.353Z,33.98
2023-04-12T04:28:42.432Z,33.99
2023-04-12T04:29:42.457Z,33.95
2023-04-12T04:30:42.502Z,33.95
2023-04-12T04:31:42.571Z,33.94
2023-04-12T04:32:42.534Z,33.92
2023-04-12T04:33:42.535Z,33.94
2023-04-12T04:34:42.513Z,33.95
2023-04-12T04:35:42.569Z,33.90
2023-04-12T04:36:42.596Z,33.84
2023-04-12T04:37:42.568Z,33.86
2023-04-12T04:38:42.611Z,33.87
2023-04-12T04:39:42.596Z,33.84
2023-04-12T04:40:42.610Z,33.82
2023-04-12T04:41:42.670Z,33.83
2023-04-12T04:42:42.632Z,33.85
2023-04-12T04:43:42.606Z,33.83
2023-04-12T04:44:43.390Z,33.80
2023-04-12T04:45:42.674Z,33.79
2023-04-12T04:46:42.695Z,33.82
2023-04-12T04:47:42.737Z,33.78
2023-04-12T04:48:42.706Z,33.90
2023-04-12T04:49:42.717Z,33.97
2023-04-12T04:50:42.746Z,34.02
2023-04-12T04:51:42.817Z,33.92
2023-04-12T04:52:42.821Z,34.15
2023-04-12T04:53:42.848Z,34.42
2023-04-12T04:54:42.863Z,34.76
2023-04-12T04:55:42.875Z,35.08
2023-04-12T04:56:42.880Z,35.22
2023-04-12T04:57:42.961Z,35.22
2023-04-12T04:58:42.904Z,35.56
2023-04-12T04:59:42.933Z,35.63
2023-04-12T05:00:42.974Z,35.77
2023-04-12T05:01:43.091Z,35.84
2023-04-12T05:02:43.140Z,36.24
2023-04-12T05:03:43.060Z,36.57
2023-04-12T05:04:42.986Z,36.84
2023-04-12T05:05:43.054Z,37.43
2023-04-12T05:06:43.050Z,37.80
2023-04-12T05:07:43.098Z,38.21
2023-04-12T05:08:43.109Z,38.50
2023-04-12T05:09:43.100Z,38.84
2023-04-12T05:10:43.175Z,39.12
2023-04-12T05:11:43.214Z,39.34
2023-04-12T05:12:43.268Z,39.20
2023-04-12T05:13:43.320Z,39.29
2023-04-12T05:14:47.317Z,39.56
2023-04-12T05:15:44.333Z,39.74
2023-04-12T05:16:43.387Z,39.91
2023-04-12T05:17:43.345Z,39.91
2023-04-12T05:18:43.332Z,40.14
2023-04-12T05:19:43.294Z,40.21
2023-04-12T05:20:43.312Z,40.27
2023-04-12T05:21:43.304Z,40.49
2023-04-12T05:22:43.290Z,40.63
2023-04-12T05:23:43.276Z,40.64
2023-04-12T05:24:43.314Z,40.71
2023-04-12T05:25:43.371Z,40.92
2023-04-12T05:26:43.444Z,40.96
2023-04-12T05:27:43.479Z,41.54
2023-04-12T05:28:43.525Z,42.18
2023-04-12T05:29:43.598Z,42.25
2023-04-12T05:30:43.689Z,42.32
2023-04-12T05:31:43.757Z,42.18
2023-04-12T05:32:43.821Z,42.64
2023-04-12T05:33:43.858Z,42.69
2023-04-12T05:34:43.909Z,42.96
2023-04-12T05:35:43.989Z,43.13
2023-04-12T05:36:44.448Z,43.42
2023-04-12T05:37:44.058Z,43.39
2023-04-12T05:38:44.142Z,43.48
2023-04-12T05:39:44.196Z,43.57
2023-04-12T05:40:44.383Z,43.58
2023-04-12T05:41:44.334Z,43.44
2023-04-12T05:42:44.383Z,43.60
2023-04-12T05:43:44.429Z,43.66
2023-04-12T05:44:44.490Z,43.48
2023-04-12T05:45:44.526Z,43.41
2023-04-12T05:46:44.957Z,43.97
2023-04-12T05:47:44.644Z,43.93
2023-04-12T05:48:44.657Z,44.29
2023-04-12T05:49:44.670Z,44.87
2023-04-12T05:50:44.679Z,44.75
2023-04-12T05:51:44.944Z,44.74
2023-04-12T05:52:44.736Z,44.93
2023-04-12T05:53:44.783Z,44.92
2023-04-12T05:54:44.775Z,45.10
2023-04-12T05:55:44.824Z,45.83
2023-04-12T05:56:44.938Z,45.55
2023-04-12T05:57:44.850Z,45.63
2023-04-12T05:58:44.892Z,45.72
2023-04-12T05:59:44.894Z,45.73
2023-04-12T06:00:44.872Z,45.88
2023-04-12T06:01:44.989Z,45.93
2023-04-12T06:02:45.077Z,46.32
2023-04-12T06:03:45.069Z,46.21
2023-04-12T06:04:50.238Z,46.24
2023-04-12T06:05:46.096Z,46.37
2023-04-12T06:06:44.995Z,46.41
2023-04-12T06:07:44.983Z,46.76
2023-04-12T06:08:44.976Z,46.70
2023-04-12T06:09:44.933Z,46.82
2023-04-12T06:10:44.943Z,46.91
2023-04-12T06:11:44.965Z,47.21
2023-04-12T06:12:44.934Z,47.36
2023-04-12T06:13:44.991Z,47.48
2023-04-12T06:14:45.045Z,47.59
2023-04-12T06:15:45.117Z,47.55
2023-04-12T06:16:45.118Z,47.73
2023-04-12T06:17:45.187Z,47.77
2023-04-12T06:18:45.195Z,47.84
2023-04-12T06:19:45.268Z,48.05
2023-04-12T06:20:45.298Z,48.16
2023-04-12T06:21:45.448Z,48.30
2023-04-12T06:22:45.352Z,48.23
2023-04-12T06:23:45.357Z,48.38
2023-04-12T06:24:45.380Z,48.34
2023-04-12T06:25:45.410Z,48.52
2023-04-12T06:26:45.484Z,48.63
2023-04-12T06:27:45.464Z,48.62
2023-04-12T06:28:45.480Z,48.79
2023-04-12T06:29:45.514Z,48.93
2023-04-12T06:30:45.514Z,49.03
2023-04-12T06:31:45.634Z,48.95
2023-04-12T06:32:45.603Z,49.08
2023-04-12T06:33:45.580Z,49.18
2023-04-12T06:34:45.621Z,49.35
2023-04-12T06:35:45.693Z,49.40
2023-04-12T06:36:45.645Z,49.37
2023-04-12T06:37:45.936Z,49.50
2023-04-12T06:38:45.663Z,49.37
2023-04-12T06:39:45.670Z,49.50
2023-04-12T06:40:45.710Z,49.51
2023-04-12T06:41:45.721Z,49.61
2023-04-12T06:42:45.721Z,49.58
2023-04-12T06:43:45.732Z,49.60
2023-04-12T06:44:45.782Z,49.69
2023-04-12T06:45:45.767Z,50.15
2023-04-12T06:46:46.020Z,49.87
2023-04-12T06:47:45.780Z,49.73
2023-04-12T06:48:45.812Z,49.55
2023-04-12T06:49:45.809Z,49.38
2023-04-12T06:50:45.849Z,49.09
2023-04-12T06:51:45.849Z,49.00
2023-04-12T06:52:45.993Z,48.31
2023-04-12T06:53:46.027Z,48.32
2023-04-12T06:54:45.913Z,48.51
2023-04-12T06:55:45.852Z,48.79
2023-04-12T06:56:45.897Z,48.76
2023-04-12T06:57:45.892Z,49.28
2023-04-12T06:58:45.913Z,49.25
2023-04-12T06:59:45.905Z,49.07
2023-04-12T07:00:45.929Z,49.11
2023-04-12T07:01:45.955Z,49.13
2023-04-12T07:02:46.267Z,49.02
2023-04-12T07:03:46.138Z,49.10
2023-04-12T07:04:46.073Z,49.28
2023-04-12T07:05:46.088Z,49.34
2023-04-12T07:06:46.132Z,49.35
2023-04-12T07:07:46.114Z,49.44
2023-04-12T07:08:46.138Z,49.52
2023-04-12T07:09:46.152Z,49.52
2023-04-12T07:10:46.141Z,49.63
2023-04-12T07:11:46.193Z,49.57
2023-04-12T07:12:46.232Z,49.68
2023-04-12T07:13:46.248Z,49.69
2023-04-12T07:14:46.240Z,49.77
2023-04-12T07:15:46.212Z,49.90
2023-04-12T07:16:46.335Z,50.05
2023-04-12T07:17:46.350Z,49.97
2023-04-12T07:18:46.332Z,49.98
2023-04-12T07:19:46.332Z,49.98
2023-04-12T07:20:46.354Z,50.08
2023-04-12T07:21:46.342Z,50.11
2023-04-12T07:22:46.363Z,50.11
2023-04-12T07:23:46.322Z,49.94
2023-04-12T07:24:46.355Z,50.10
2023-04-12T07:25:46.391Z,50.02
2023-04-12T07:26:46.339Z,49.94
2023-04-12T07:27:46.597Z,50.05
2023-04-12T07:28:46.446Z,50.09
2023-04-12T07:29:46.417Z,50.17
2023-04-12T07:30:46.398Z,49.99
2023-04-12T07:31:46.399Z,50.02
2023-04-12T07:32:46.534Z,50.11
2023-04-12T07:33:46.511Z,49.94
2023-04-12T07:34:46.541Z,50.00
2023-04-12T07:35:46.587Z,50.08
2023-04-12T07:36:46.597Z,50.18
2023-04-12T07:37:46.606Z,50.09
2023-04-12T07:38:46.610Z,50.13
2023-04-12T07:39:46.683Z,50.23
2023-04-12T07:40:49.914Z,50.76
2023-04-12T07:41:46.688Z,50.29
2023-04-12T07:42:47.039Z,50.16
2023-04-12T07:43:46.656Z,50.27
2023-04-12T07:44:46.683Z,49.80
2023-04-12T07:45:46.684Z,49.66
2023-04-12T07:46:46.678Z,49.45
2023-04-12T07:47:46.682Z,49.47
2023-04-12T07:48:46.617Z,49.40
2023-04-12T07:49:46.619Z,49.41
2023-04-12T07:50:46.595Z,49.33
2023-04-12T07:51:46.608Z,49.30
2023-04-12T07:52:46.621Z,49.25
2023-04-12T07:53:46.607Z,49.23
2023-04-12T07:54:46.614Z,49.19
2023-04-12T07:55:46.554Z,49.05
2023-04-12T07:56:46.540Z,49.02
2023-04-12T07:57:46.591Z,49.01
2023-04-12T07:58:46.568Z,48.92
2023-04-12T07:59:46.543Z,48.90
2023-04-12T08:00:46.601Z,48.87
2023-04-12T08:01:46.580Z,48.89
2023-04-12T08:02:46.695Z,48.86
2023-04-12T08:03:46.629Z,48.90
2023-04-12T08:04:46.515Z,48.92
2023-04-12T08:05:46.551Z,49.01
2023-04-12T08:06:46.505Z,48.90
2023-04-12T08:07:46.544Z,48.90
2023-04-12T08:08:46.475Z,48.85
2023-04-12T08:09:46.492Z,48.90
2023-04-12T08:10:46.693Z,48.74
2023-04-12T08:11:46.463Z,48.66
2023-04-12T08:12:46.486Z,48.62
2023-04-12T08:13:46.462Z,48.56
2023-04-12T08:14:46.440Z,48.54
2023-04-12T08:15:46.421Z,48.58
2023-04-12T08:16:46.441Z,48.62
2023-04-12T08:17:46.475Z,48.74
2023-04-12T08:18:46.392Z,48.70
2023-04-12T08:19:46.384Z,48.74
2023-04-12T08:20:46.413Z,48.65
2023-04-12T08:21:46.398Z,48.66
2023-04-12T08:22:46.412Z,48.64
2023-04-12T08:23:46.381Z,48.65
2023-04-12T08:24:46.380Z,48.61
2023-04-12T08:25:46.384Z,48.50
2023-04-12T08:26:46.360Z,48.54
2023-04-12T08:27:46.335Z,48.62
2023-04-12T08:28:46.341Z,48.57
2023-04-12T08:29:46.332Z,48.61
2023-04-12T08:30:46.359Z,48.59
2023-04-12T08:31:46.462Z,48.52
2023-04-12T08:32:46.355Z,48.51
2023-04-12T08:33:46.322Z,48.43
2023-04-12T08:34:46.319Z,48.43
2023-04-12T08:35:46.350Z,48.41
2023-04-12T08:36:46.299Z,48.53
2023-04-12T08:37:46.506Z,48.44
2023-04-12T08:38:46.784Z,48.39
2023-04-12T08:39:46.961Z,48.34
2023-04-12T08:40:46.269Z,48.26
2023-04-12T08:41:46.277Z,48.27
2023-04-12T08:42:46.303Z,48.25
2023-04-12T08:43:46.314Z,48.35
2023-04-12T08:44:46.236Z,48.31
2023-04-12T08:45:46.304Z,48.21
2023-04-12T08:46:46.284Z,48.10
2023-04-12T08:47:46.245Z,48.05
2023-04-12T08:48:46.291Z,48.00
2023-04-12T08:49:46.250Z,47.98
2023-04-12T08:50:46.236Z,48.00
2023-04-12T08:51:46.185Z,47.96
2023-04-12T08:52:46.510Z,47.95
2023-04-12T08:53:46.201Z,47.92
2023-04-12T08:54:46.172Z,47.92
2023-04-12T08:55:46.181Z,47.84
2023-04-12T08:56:46.178Z,47.81
2023-04-12T08:57:46.522Z,47.79
2023-04-12T08:58:46.179Z,47.86
2023-04-12T08:59:46.163Z,47.92
2023-04-12T09:00:46.134Z,47.99
2023-04-12T09:01:46.233Z,47.98
2023-04-12T09:02:46.390Z,47.95
2023-04-12T09:03:46.262Z,47.91
2023-04-12T09:04:46.308Z,47.90
2023-04-12T09:05:46.125Z,47.98
2023-04-12T09:06:46.102Z,47.94
2023-04-12T09:07:46.116Z,47.91
2023-04-12T09:08:46.187Z,47.85
2023-04-12T09:09:46.099Z,47.77
2023-04-12T09:10:46.090Z,47.79
2023-04-12T09:11:46.078Z,47.75
2023-04-12T09:12:46.117Z,47.70
2023-04-12T09:13:46.053Z,47.69
2023-04-12T09:14:46.088Z,47.77
2023-04-12T09:15:46.042Z,47.74
2023-04-12T09:16:46.092Z,47.82
2023-04-12T09:17:46.042Z,47.84
2023-04-12T09:18:46.162Z,47.80
2023-04-12T09:19:46.028Z,47.89
2023-04-12T09:20:46.023Z,47.88
2023-04-12T09:21:46.058Z,47.84
2023-04-12T09:22:46.182Z,47.69
2023-04-12T09:23:46.040Z,47.62
2023-04-12T09:24:46.025Z,47.46
2023-04-12T09:25:46.027Z,47.37
2023-04-12T09:26:46.062Z,47.41
2023-04-12T09:27:46.102Z,47.44
2023-04-12T09:28:46.100Z,47.45
2023-04-12T09:29:46.086Z,47.46
2023-04-12T09:30:46.121Z,47.39
2023-04-12T09:31:46.178Z,47.41
2023-04-12T09:32:46.219Z,47.33
2023-04-12T09:33:46.158Z,47.31
2023-04-12T09:34:46.113Z,47.26
2023-04-12T09:35:46.234Z,47.14
2023-04-12T09:36:46.145Z,47.07
2023-04-12T09:37:46.547Z,47.01
2023-04-12T09:38:46.197Z,47.14
2023-04-12T09:39:46.219Z,46.87
2023-04-12T09:40:46.230Z,46.95
2023-04-12T09:41:46.245Z,45.98
2023-04-12T09:42:46.244Z,46.36
2023-04-12T09:43:46.549Z,46.35
2023-04-12T09:44:46.337Z,46.36
2023-04-12T09:45:46.377Z,46.82
2023-04-12T09:46:48.327Z,46.02
2023-04-12T09:47:46.316Z,45.25
2023-04-12T09:48:46.327Z,45.56
2023-04-12T09:49:46.352Z,45.48
2023-04-12T09:50:46.372Z,45.23
2023-04-12T09:51:46.395Z,45.06
2023-04-12T09:52:46.397Z,44.64
2023-04-12T09:53:46.401Z,44.50
2023-04-12T09:54:46.420Z,44.01
2023-04-12T09:55:46.445Z,43.65
2023-04-12T09:56:46.408Z,43.22
2023-04-12T09:57:46.471Z,42.83
2023-04-12T09:58:46.509Z,42.96
2023-04-12T09:59:46.509Z,42.75
2023-04-12T10:00:46.525Z,43.00
2023-04-12T10:01:46.687Z,42.64
2023-04-12T10:02:47.401Z,42.35
2023-04-12T10:03:46.748Z,42.50
2023-04-12T10:04:46.653Z,41.87
2023-04-12T10:05:46.629Z,41.37
2023-04-12T10:06:46.632Z,41.12
2023-04-12T10:07:46.676Z,41.20
2023-04-12T10:08:46.697Z,41.43
2023-04-12T10:09:46.717Z,41.48
2023-04-12T10:10:46.760Z,41.31
2023-04-12T10:11:46.788Z,41.41
2023-04-12T10:12:46.954Z,41.32
2023-04-12T10:13:54.052Z,41.05
2023-04-12T10:14:46.892Z,40.88
2023-04-12T10:15:46.885Z,40.92
2023-04-12T10:16:46.919Z,40.60
2023-04-12T10:17:46.883Z,40.82
2023-04-12T10:18:46.854Z,40.91
2023-04-12T10:19:46.853Z,41.14
2023-04-12T10:20:46.837Z,40.90
2023-04-12T10:21:46.797Z,40.74
2023-04-12T10:22:46.775Z,40.82
2023-04-12T10:23:46.795Z,40.60
2023-04-12T10:24:46.759Z,40.52
2023-04-12T10:25:46.792Z,40.68
2023-04-12T10:26:46.799Z,41.00
2023-04-12T10:27:46.785Z,41.01
2023-04-12T10:28:46.749Z,40.57
2023-04-12T10:29:46.732Z,40.93
2023-04-12T10:30:46.733Z,40.93
2023-04-12T10:31:46.799Z,41.14
2023-04-12T10:32:46.780Z,40.93
2023-04-12T10:33:46.721Z,41.06
2023-04-12T10:34:46.703Z,41.13
2023-04-12T10:35:46.711Z,41.27
2023-04-12T10:36:46.743Z,41.19
2023-04-12T10:37:46.724Z,40.92
2023-04-12T10:38:46.706Z,40.89
2023-04-12T10:39:46.667Z,41.14
2023-04-12T10:40:46.723Z,41.28
2023-04-12T10:41:46.674Z,41.42
2023-04-12T10:42:46.679Z,41.39
2023-04-12T10:43:46.701Z,41.35
2023-04-12T10:44:46.656Z,41.41
2023-04-12T10:45:46.634Z,41.21
2023-04-12T10:46:46.761Z,41.15
2023-04-12T10:47:46.722Z,41.13
2023-04-12T10:48:46.692Z,40.77
2023-04-12T10:49:46.714Z,40.56
2023-04-12T10:50:46.729Z,40.75
2023-04-12T10:51:46.739Z,40.68
2023-04-12T10:52:46.793Z,40.52
2023-04-12T10:53:46.864Z,40.63
2023-04-12T10:54:46.766Z,40.81
2023-04-12T10:55:46.794Z,40.46
2023-04-12T10:56:46.866Z,40.74
2023-04-12T10:57:46.880Z,40.47
2023-04-12T10:58:46.871Z,40.70
2023-04-12T11:00:46.966Z,40.75
2023-04-12T11:01:47.020Z,40.65
2023-04-12T11:02:47.045Z,40.65
2023-04-12T11:05:47.054Z,40.22
2023-04-12T11:06:47.018Z,40.37
2023-04-12T11:07:47.030Z,40.42
2023-04-12T11:08:47.080Z,40.43
2023-04-12T11:09:47.075Z,40.43
2023-04-12T11:10:47.115Z,40.68
2023-04-12T11:11:47.154Z,40.51
2023-04-12T11:12:47.131Z,40.57
2023-04-12T11:13:47.189Z,40.43
2023-04-12T11:14:47.207Z,40.07
2023-04-12T11:15:47.203Z,40.00
2023-04-12T11:16:47.280Z,39.92
2023-04-12T11:17:47.305Z,39.73
2023-04-12T11:18:47.289Z,40.23
2023-04-12T11:19:47.299Z,40.06
2023-04-12T11:20:47.335Z,40.01
2023-04-12T11:21:47.333Z,40.22
2023-04-12T11:22:47.422Z,40.10
2023-04-12T11:23:47.364Z,39.70
2023-04-12T11:24:47.404Z,39.60
2023-04-12T11:25:47.399Z,39.68
2023-04-12T11:26:47.471Z,39.73
2023-04-12T11:27:47.464Z,39.86
2023-04-12T11:28:47.591Z,39.89
2023-04-12T11:29:47.507Z,40.05
2023-04-12T11:30:47.558Z,40.16
2023-04-12T11:31:47.611Z,39.88
2023-04-12T11:32:47.720Z,39.79
2023-04-12T11:33:47.594Z,39.63
2023-04-12T11:34:47.598Z,39.80
2023-04-12T11:35:47.599Z,39.65
2023-04-12T11:36:47.657Z,39.82
2023-04-12T11:37:47.654Z,39.92
2023-04-12T11:38:47.704Z,39.99
2023-04-12T11:39:47.656Z,39.85
2023-04-12T11:40:47.684Z,39.87
2023-04-12T11:41:47.670Z,40.14
2023-04-12T11:42:47.693Z,40.26
2023-04-12T11:43:47.714Z,40.58
2023-04-12T11:44:57.678Z,40.60
2023-04-12T11:45:48.701Z,40.45
2023-04-12T11:46:47.739Z,40.43
2023-04-12T11:47:47.738Z,40.56
2023-04-12T11:48:47.736Z,40.48
2023-04-12T11:49:47.672Z,40.99
2023-04-12T11:50:56.989Z,40.92
2023-04-12T11:51:49.707Z,41.08
2023-04-12T11:52:47.655Z,41.38
2023-04-12T11:53:47.673Z,41.26
2023-04-12T11:54:47.703Z,40.97
2023-04-12T11:55:47.660Z,41.16
2023-04-12T11:56:47.629Z,41.22
2023-04-12T11:57:47.657Z,42.11
2023-04-12T11:58:47.633Z,41.96
2023-04-12T11:59:47.685Z,42.43
2023-04-12T12:00:47.649Z,42.35
2023-04-12T12:01:47.627Z,42.10
2023-04-12T12:03:03.842Z,42.29
2023-04-12T12:03:48.832Z,42.34
2023-04-12T12:04:47.804Z,42.11
2023-04-12T12:05:47.728Z,42.13
2023-04-12T12:06:47.741Z,42.88
2023-04-12T12:07:47.582Z,42.74
2023-04-12T12:08:47.568Z,42.67
2023-04-12T12:09:48.106Z,42.84
2023-04-12T12:11:47.569Z,42.51
2023-04-12T12:12:47.544Z,42.42
2023-04-12T12:13:47.555Z,42.74
2023-04-12T12:14:47.548Z,43.08
2023-04-12T12:15:47.562Z,43.61
2023-04-12T12:16:47.492Z,43.60
2023-04-12T12:17:47.526Z,43.87
2023-04-12T12:18:47.916Z,43.91
2023-04-12T12:19:47.519Z,43.55
2023-04-12T12:20:47.525Z,43.16
2023-04-12T12:21:47.488Z,42.72
2023-04-12T12:22:47.478Z,42.67
2023-04-12T12:23:47.480Z,42.30
2023-04-12T12:24:47.472Z,42.01
2023-04-12T12:25:47.461Z,42.12
2023-04-12T12:26:47.464Z,41.62
2023-04-12T12:27:47.461Z,41.77
2023-04-12T12:28:47.414Z,41.49
2023-04-12T12:29:47.438Z,41.31
2023-04-12T12:30:47.438Z,41.21
2023-04-12T12:31:47.449Z,41.16
2023-04-12T12:32:47.459Z,40.82
2023-04-12T12:33:47.774Z,40.91
2023-04-12T12:34:47.402Z,40.85
2023-04-12T12:35:47.438Z,40.84
2023-04-12T12:36:47.375Z,40.84
2023-04-12T12:37:47.351Z,40.96
2023-04-12T12:38:47.359Z,40.96
2023-04-12T12:39:47.393Z,40.90
2023-04-12T12:40:47.329Z,41.04
2023-04-12T12:41:47.340Z,40.97
2023-04-12T12:42:47.334Z,41.08
2023-04-12T12:43:47.329Z,40.90
2023-04-12T12:44:47.340Z,40.91
2023-04-12T12:45:47.298Z,40.93
2023-04-12T12:46:53.367Z,40.73
2023-04-12T12:47:48.383Z,40.88
2023-04-12T12:48:47.305Z,40.93
2023-04-12T12:49:47.326Z,40.80
2023-04-12T12:50:47.279Z,40.36
2023-04-12T12:51:48.152Z,40.61
2023-04-12T12:52:47.251Z,40.61
2023-04-12T12:53:47.231Z,40.64
2023-04-12T12:54:47.244Z,40.57
2023-04-12T12:55:47.262Z,40.54
2023-04-12T12:56:47.253Z,40.51